CheckWX is a tool to help pilots better visualize weather data.  It is not intended as a substitute for an official pre-flight weather briefing.

04:37:55 UTC

KUAO TAF
Aurora State Airport
Aurora, Oregon, USA
KUAO 162329Z 1700/1724 20010KT P6SM VCTS SCT035CB BKN060 TEMPO 1700/1703 SHRA BKN035 BKN060 FM170300 27005KT P6SM SCT035 SCT060 FM170900 VRB04KT P6SM BKN060 OVC100 FM171200 16010KT 6SM -RA BKN025 OVC035 FM171500 18018G26KT 3SM RA BR BKN020 OVC035 FM171900 20013G24KT P6SM -SHRA BKN025 OVC045 FM172100 22012KT P6SM -SHRA SCT030 BKN045

Sep-17@
00:00 UTC

Sep-17 @ 00:00 UTC

Sep-17@
03:00 UTC

Sep-17 @ 03:00 UTC

KUAO 162329Z 1700/1724 20010KT P6SM VCTS SCT035CB BKN060

Expired

Wind
  • 200° at 10 KTS
Conditions
Area Thunderstorm
Cloud Levels
  • Scattered at 3,500' AGL
  • Broken at 6,000' AGL

Sep-17@
00:00 UTC

Sep-17 @ 00:00 UTC

Sep-17@
03:00 UTC

Sep-17 @ 03:00 UTC

TEMPO 1700/1703 SHRA BKN035 BKN060

Expired

Conditions
Rain
Cloud Levels
  • Broken at 3,500' AGL
  • Broken at 6,000' AGL

Sep-17@
03:00 UTC

Sep-17 @ 03:00 UTC

Sep-17@
09:00 UTC

Sep-17 @ 09:00 UTC

FM170300 27005KT P6SM SCT035 SCT060

From

From Standard forecast or significant change

Wind
  • 270° at 5 KTS
Cloud Levels
  • Scattered at 3,500' AGL
  • Scattered at 6,000' AGL

Sep-17@
09:00 UTC

Sep-17 @ 09:00 UTC

Sep-17@
12:00 UTC

Sep-17 @ 12:00 UTC

FM170900 VRB04KT P6SM BKN060 OVC100

From

From Standard forecast or significant change

Wind
  • Variable at 4 KTS
Cloud Levels
  • Broken at 6,000' AGL
  • Overcast at 10,000' AGL

Sep-17@
12:00 UTC

Sep-17 @ 12:00 UTC

Sep-17@
15:00 UTC

Sep-17 @ 15:00 UTC

FM171200 16010KT 6SM -RA BKN025 OVC035

From

From Standard forecast or significant change

Wind
  • 160° at 10 KTS
Conditions
Light Rain
Cloud Levels
  • Broken at 2,500' AGL
  • Overcast at 3,500' AGL

Sep-17@
15:00 UTC

Sep-17 @ 15:00 UTC

Sep-17@
19:00 UTC

Sep-17 @ 19:00 UTC

FM171500 18018G26KT 3SM RA BR BKN020 OVC035

From

From Standard forecast or significant change

Wind
  • 180° at 18 KTS
  • {Gusting to 26 KTS
Conditions
Rain, Mist
Cloud Levels
  • Broken at 2,000' AGL
  • Overcast at 3,500' AGL

Sep-17@
19:00 UTC

Sep-17 @ 19:00 UTC

Sep-17@
21:00 UTC

Sep-17 @ 21:00 UTC

FM171900 20013G24KT P6SM -SHRA BKN025 OVC045

From

From Standard forecast or significant change

Wind
  • 200° at 13 KTS
  • {Gusting to 24 KTS
Conditions
Light Rain
Cloud Levels
  • Broken at 2,500' AGL
  • Overcast at 4,500' AGL

Sep-17@
21:00 UTC

Sep-17 @ 21:00 UTC

Sep-18@
00:00 UTC

Sep-18 @ 00:00 UTC

FM172100 22012KT P6SM -SHRA SCT030 BKN045

From

From Standard forecast or significant change

Wind
  • 220° at 12 KTS
Conditions
Light Rain
Cloud Levels
  • Scattered at 3,000' AGL
  • Broken at 4,500' AGL